WRC9504 UKLL-UKBB
Flight info
| Callsign | WRC9504 |
|---|---|
| Flight time | 1h 4m |
| Altitude | 37000 |
| Route | ADBAN N983 SORON M986 SLV |
| Aircraft | A320/M-SDE3FGHIRWY/LB1 |
Departure
| Time | 2026-04-21 16:48 |
|---|---|
| Airport | Lviv International Airport (UKLL) |
Arrival
| Time | 2026-04-21 17:52 |
|---|---|
| Airport | Boryspil International Airport (UKBB) |
| Time | Latitude | Longitude | Altitude | Speed | Heading |
|---|---|---|---|---|---|
| 2026-04-21 16:18 | 49.81263 | 23.95918 | 1066 ft | 0 kts | 46° |
| 2026-04-21 16:39 | 49.81258 | 23.95910 | 1063 ft | 4 kts | 47° |
| 2026-04-21 16:39 | 49.81241 | 23.95878 | 1066 ft | 4 kts | 54° |
| 2026-04-21 16:40 | 49.81227 | 23.95843 | 1067 ft | 4 kts | 72° |
| 2026-04-21 16:40 | 49.81225 | 23.95807 | 1066 ft | 4 kts | 124° |
| 2026-04-21 16:40 | 49.81231 | 23.95795 | 1068 ft | 1 kts | 136° |
| 2026-04-21 16:42 | 49.81231 | 23.95796 | 1067 ft | 1 kts | 136° |
| 2026-04-21 16:42 | 49.81209 | 23.95828 | 1067 ft | 5 kts | 136° |
| 2026-04-21 16:42 | 49.81187 | 23.95861 | 1066 ft | 4 kts | 136° |
| 2026-04-21 16:43 | 49.81167 | 23.95891 | 1070 ft | 6 kts | 136° |
| 2026-04-21 16:43 | 49.81134 | 23.95941 | 1065 ft | 6 kts | 136° |
| 2026-04-21 16:43 | 49.81104 | 23.95986 | 1065 ft | 7 kts | 136° |
| 2026-04-21 16:43 | 49.81056 | 23.96033 | 1065 ft | 10 kts | 168° |
| 2026-04-21 16:44 | 49.80994 | 23.96033 | 1065 ft | 9 kts | 181° |
| 2026-04-21 16:44 | 49.80922 | 23.96032 | 1065 ft | 11 kts | 181° |
| 2026-04-21 16:44 | 49.80844 | 23.96044 | 1063 ft | 11 kts | 156° |
| 2026-04-21 16:44 | 49.80789 | 23.96116 | 1064 ft | 11 kts | 137° |
| 2026-04-21 16:45 | 49.80710 | 23.96234 | 1065 ft | 20 kts | 136° |
| 2026-04-21 16:45 | 49.80597 | 23.96405 | 1066 ft | 24 kts | 136° |
| 2026-04-21 16:45 | 49.80469 | 23.96595 | 1064 ft | 26 kts | 136° |
| 2026-04-21 16:45 | 49.80333 | 23.96800 | 1063 ft | 28 kts | 136° |
| 2026-04-21 16:46 | 49.80194 | 23.97009 | 1064 ft | 29 kts | 135° |
| 2026-04-21 16:46 | 49.80050 | 23.97224 | 1065 ft | 27 kts | 135° |
| 2026-04-21 16:46 | 49.79995 | 23.97344 | 1065 ft | 10 kts | 93° |
| 2026-04-21 16:46 | 49.79971 | 23.97430 | 1066 ft | 8 kts | 134° |
| 2026-04-21 16:47 | 49.79927 | 23.97434 | 1066 ft | 7 kts | 239° |
| 2026-04-21 16:47 | 49.79948 | 23.97379 | 1068 ft | 5 kts | 315° |
| 2026-04-21 16:47 | 49.80005 | 23.97294 | 1065 ft | 35 kts | 316° |
| 2026-04-21 16:47 | 49.80360 | 23.96759 | 1063 ft | 104 kts | 316° |
| 2026-04-21 16:48 | 49.81007 | 23.95789 | 1065 ft | 156 kts | 316° |
| 2026-04-21 16:48 | 49.81790 | 23.94618 | 1713 ft | 151 kts | 317° |
| 2026-04-21 16:48 | 49.82553 | 23.93518 | 2435 ft | 149 kts | 321° |
| 2026-04-21 16:48 | 49.83332 | 23.92436 | 3031 ft | 155 kts | 321° |
| 2026-04-21 16:49 | 49.84194 | 23.91242 | 3350 ft | 177 kts | 321° |
| 2026-04-21 16:49 | 49.85170 | 23.89882 | 3650 ft | 201 kts | 320° |
| 2026-04-21 16:49 | 49.86269 | 23.88344 | 4006 ft | 225 kts | 320° |
| 2026-04-21 16:49 | 49.87489 | 23.86625 | 4480 ft | 247 kts | 319° |
| 2026-04-21 16:50 | 49.88762 | 23.84814 | 5278 ft | 255 kts | 319° |
| 2026-04-21 16:50 | 49.90164 | 23.83122 | 6171 ft | 257 kts | 337° |
| 2026-04-21 16:50 | 49.91916 | 23.82755 | 7015 ft | 260 kts | 11° |
| 2026-04-21 16:50 | 49.93546 | 23.83976 | 7886 ft | 264 kts | 36° |
| 2026-04-21 16:51 | 49.94909 | 23.85920 | 8791 ft | 268 kts | 44° |
| 2026-04-21 16:51 | 49.96166 | 23.88081 | 9658 ft | 272 kts | 46° |
| 2026-04-21 16:51 | 49.97386 | 23.90368 | 10465 ft | 278 kts | 56° |
| 2026-04-21 16:51 | 49.97989 | 23.93240 | 11210 ft | 288 kts | 84° |
| 2026-04-21 16:52 | 49.97687 | 23.96375 | 11749 ft | 308 kts | 110° |
| 2026-04-21 16:52 | 49.96620 | 23.99363 | 11964 ft | 332 kts | 117° |
| 2026-04-21 16:52 | 49.95945 | 24.01595 | 12171 ft | 342 kts | 107° |
| 2026-04-21 16:52 | 49.95114 | 24.06352 | 13050 ft | 348 kts | 100° |
| 2026-04-21 16:53 | 49.94617 | 24.10039 | 13801 ft | 350 kts | 98° |
| 2026-04-21 16:53 | 49.94190 | 24.13778 | 14468 ft | 353 kts | 97° |
| 2026-04-21 16:53 | 49.93802 | 24.17560 | 15110 ft | 356 kts | 96° |
| 2026-04-21 16:53 | 49.93425 | 24.21382 | 15745 ft | 360 kts | 96° |
| 2026-04-21 16:54 | 49.92931 | 24.25210 | 16382 ft | 366 kts | 103° |
| 2026-04-21 16:54 | 49.92233 | 24.29024 | 17016 ft | 369 kts | 103° |
| 2026-04-21 16:54 | 49.91523 | 24.32812 | 17649 ft | 373 kts | 104° |
| 2026-04-21 16:54 | 49.90782 | 24.36698 | 18202 ft | 378 kts | 104° |
| 2026-04-21 16:55 | 49.90023 | 24.40630 | 18736 ft | 383 kts | 104° |
| 2026-04-21 16:55 | 49.89254 | 24.44600 | 19268 ft | 386 kts | 104° |
| 2026-04-21 16:55 | 49.88479 | 24.48608 | 19810 ft | 389 kts | 104° |
| 2026-04-21 16:55 | 49.87700 | 24.52649 | 20347 ft | 393 kts | 104° |
| 2026-04-21 16:56 | 49.86917 | 24.56726 | 20892 ft | 396 kts | 104° |
| 2026-04-21 16:56 | 49.86136 | 24.60782 | 21435 ft | 399 kts | 104° |
| 2026-04-21 16:56 | 49.85340 | 24.64904 | 22002 ft | 401 kts | 104° |
| 2026-04-21 16:56 | 49.84533 | 24.69059 | 22532 ft | 404 kts | 104° |
| 2026-04-21 16:57 | 49.83720 | 24.73245 | 23049 ft | 407 kts | 104° |
| 2026-04-21 16:57 | 49.82898 | 24.77466 | 23496 ft | 412 kts | 104° |
| 2026-04-21 16:57 | 49.82063 | 24.81746 | 23850 ft | 417 kts | 104° |
| 2026-04-21 16:57 | 49.81220 | 24.86064 | 24240 ft | 420 kts | 104° |
| 2026-04-21 16:58 | 49.80561 | 24.90469 | 24641 ft | 420 kts | 96° |
| 2026-04-21 16:58 | 49.80362 | 24.94973 | 25035 ft | 420 kts | 88° |
| 2026-04-21 16:58 | 49.80359 | 24.99440 | 25418 ft | 422 kts | 88° |
| 2026-04-21 16:58 | 49.80356 | 25.03978 | 25798 ft | 424 kts | 88° |
| 2026-04-21 16:59 | 49.80350 | 25.08558 | 26178 ft | 426 kts | 88° |
| 2026-04-21 16:59 | 49.80340 | 25.13139 | 26550 ft | 427 kts | 88° |
| 2026-04-21 16:59 | 49.80329 | 25.17751 | 26917 ft | 429 kts | 88° |
| 2026-04-21 16:59 | 49.80314 | 25.22384 | 27284 ft | 431 kts | 89° |
| 2026-04-21 17:00 | 49.80293 | 25.27047 | 27581 ft | 435 kts | 89° |
| 2026-04-21 17:00 | 49.80267 | 25.31742 | 27895 ft | 437 kts | 89° |
| 2026-04-21 17:00 | 49.80248 | 25.34867 | 28131 ft | 439 kts | 89° |
| 2026-04-21 17:00 | 49.80210 | 25.41134 | 28578 ft | 441 kts | 89° |
| 2026-04-21 17:01 | 49.80181 | 25.45929 | 28909 ft | 442 kts | 89° |
| 2026-04-21 17:01 | 49.80152 | 25.50709 | 29227 ft | 444 kts | 89° |
| 2026-04-21 17:01 | 49.80123 | 25.55473 | 29531 ft | 445 kts | 89° |
| 2026-04-21 17:01 | 49.80090 | 25.60276 | 29825 ft | 447 kts | 89° |
| 2026-04-21 17:02 | 49.80052 | 25.65073 | 30099 ft | 448 kts | 89° |
| 2026-04-21 17:02 | 49.80011 | 25.69898 | 30325 ft | 450 kts | 89° |
| 2026-04-21 17:02 | 49.79969 | 25.74709 | 30532 ft | 452 kts | 89° |
| 2026-04-21 17:02 | 49.79926 | 25.79601 | 30770 ft | 453 kts | 89° |
| 2026-04-21 17:03 | 49.79881 | 25.84440 | 31039 ft | 453 kts | 89° |
| 2026-04-21 17:03 | 49.79834 | 25.89324 | 31302 ft | 453 kts | 89° |
| 2026-04-21 17:03 | 49.79784 | 25.94146 | 31561 ft | 453 kts | 90° |
| 2026-04-21 17:03 | 49.79732 | 25.99015 | 31830 ft | 454 kts | 89° |
| 2026-04-21 17:04 | 49.79679 | 26.03903 | 32094 ft | 454 kts | 90° |
| 2026-04-21 17:04 | 49.79621 | 26.08791 | 32361 ft | 454 kts | 90° |
| 2026-04-21 17:04 | 49.79559 | 26.13680 | 32635 ft | 455 kts | 90° |
| 2026-04-21 17:04 | 49.79492 | 26.18568 | 32893 ft | 455 kts | 90° |
| 2026-04-21 17:05 | 49.79423 | 26.23464 | 33158 ft | 455 kts | 90° |
| 2026-04-21 17:05 | 49.79354 | 26.28366 | 33414 ft | 456 kts | 90° |
| 2026-04-21 17:05 | 49.79287 | 26.33273 | 33675 ft | 456 kts | 90° |
| 2026-04-21 17:05 | 49.79218 | 26.38118 | 33936 ft | 457 kts | 90° |
| 2026-04-21 17:06 | 49.79148 | 26.43022 | 34182 ft | 457 kts | 90° |
| 2026-04-21 17:06 | 49.79077 | 26.47951 | 34406 ft | 457 kts | 90° |
| 2026-04-21 17:06 | 49.79004 | 26.52860 | 34623 ft | 458 kts | 90° |
| 2026-04-21 17:06 | 49.78927 | 26.57785 | 34831 ft | 458 kts | 90° |
| 2026-04-21 17:07 | 49.78873 | 26.61052 | 34961 ft | 458 kts | 90° |
| 2026-04-21 17:07 | 49.78760 | 26.67652 | 35064 ft | 459 kts | 90° |
| 2026-04-21 17:07 | 49.78674 | 26.72583 | 35070 ft | 458 kts | 90° |
| 2026-04-21 17:08 | 49.78501 | 26.82387 | 35068 ft | 459 kts | 90° |
| 2026-04-21 17:08 | 49.78319 | 26.92263 | 35068 ft | 459 kts | 90° |
| 2026-04-21 17:09 | 49.78027 | 27.07057 | 35067 ft | 458 kts | 91° |
| 2026-04-21 17:09 | 49.77811 | 27.16892 | 35070 ft | 457 kts | 91° |
| 2026-04-21 17:10 | 49.77598 | 27.26660 | 35072 ft | 457 kts | 91° |
| 2026-04-21 17:10 | 49.77387 | 27.36498 | 35070 ft | 458 kts | 91° |
| 2026-04-21 17:11 | 49.77161 | 27.46340 | 35065 ft | 458 kts | 91° |
| 2026-04-21 17:11 | 49.76919 | 27.56118 | 35066 ft | 458 kts | 91° |
| 2026-04-21 17:12 | 49.76674 | 27.65952 | 35066 ft | 458 kts | 91° |
| 2026-04-21 17:12 | 49.76417 | 27.75795 | 35068 ft | 458 kts | 91° |
| 2026-04-21 17:13 | 49.76697 | 27.85590 | 35065 ft | 456 kts | 77° |
| 2026-04-21 17:13 | 49.78694 | 27.94835 | 35063 ft | 453 kts | 66° |
| 2026-04-21 17:14 | 49.81024 | 28.03833 | 35073 ft | 453 kts | 67° |
| 2026-04-21 17:14 | 49.83343 | 28.12905 | 35074 ft | 453 kts | 67° |
| 2026-04-21 17:15 | 49.85643 | 28.21975 | 35073 ft | 453 kts | 67° |
| 2026-04-21 17:15 | 49.87926 | 28.30999 | 35072 ft | 453 kts | 67° |
| 2026-04-21 17:16 | 49.90216 | 28.40094 | 35067 ft | 453 kts | 68° |
| 2026-04-21 17:16 | 49.92505 | 28.49201 | 35064 ft | 453 kts | 68° |
| 2026-04-21 17:17 | 49.94791 | 28.58321 | 35066 ft | 453 kts | 68° |
| 2026-04-21 17:17 | 49.97054 | 28.67392 | 35062 ft | 453 kts | 68° |
| 2026-04-21 17:18 | 49.99320 | 28.76527 | 35060 ft | 454 kts | 68° |
| 2026-04-21 17:18 | 50.01584 | 28.85682 | 35061 ft | 454 kts | 68° |
| 2026-04-21 17:19 | 50.03457 | 28.93304 | 35066 ft | 454 kts | 68° |
| 2026-04-21 17:19 | 50.06054 | 29.03963 | 35069 ft | 453 kts | 68° |
| 2026-04-21 17:20 | 50.08271 | 29.13147 | 35063 ft | 453 kts | 68° |
| 2026-04-21 17:20 | 50.10472 | 29.22353 | 35056 ft | 454 kts | 69° |
| 2026-04-21 17:21 | 50.12289 | 29.29999 | 34696 ft | 452 kts | 69° |
| 2026-04-21 17:21 | 50.13380 | 29.34588 | 34016 ft | 451 kts | 68° |
| 2026-04-21 17:21 | 50.14820 | 29.40650 | 32996 ft | 449 kts | 69° |
| 2026-04-21 17:22 | 50.15550 | 29.43734 | 32497 ft | 447 kts | 69° |
| 2026-04-21 17:22 | 50.16964 | 29.49727 | 31700 ft | 440 kts | 69° |
| 2026-04-21 17:22 | 50.17660 | 29.52685 | 31365 ft | 436 kts | 69° |
| 2026-04-21 17:22 | 50.18720 | 29.57076 | 30855 ft | 429 kts | 66° |
| 2026-04-21 17:23 | 50.19982 | 29.61255 | 30340 ft | 423 kts | 64° |
| 2026-04-21 17:23 | 50.21249 | 29.65352 | 29790 ft | 417 kts | 64° |
| 2026-04-21 17:23 | 50.22499 | 29.69412 | 29152 ft | 413 kts | 64° |
| 2026-04-21 17:23 | 50.23737 | 29.73447 | 28518 ft | 409 kts | 64° |
| 2026-04-21 17:24 | 50.25352 | 29.78721 | 27699 ft | 405 kts | 64° |
| 2026-04-21 17:24 | 50.26171 | 29.81402 | 27288 ft | 403 kts | 64° |
| 2026-04-21 17:24 | 50.27355 | 29.85292 | 26717 ft | 400 kts | 63° |
| 2026-04-21 17:24 | 50.28542 | 29.89209 | 26123 ft | 397 kts | 63° |
| 2026-04-21 17:25 | 50.29718 | 29.93095 | 25578 ft | 394 kts | 63° |
| 2026-04-21 17:25 | 50.30885 | 29.96960 | 25039 ft | 391 kts | 63° |
| 2026-04-21 17:25 | 50.32047 | 30.00808 | 24513 ft | 389 kts | 63° |
| 2026-04-21 17:25 | 50.33573 | 30.05849 | 23832 ft | 386 kts | 63° |
| 2026-04-21 17:26 | 50.34348 | 30.08413 | 23464 ft | 384 kts | 63° |
| 2026-04-21 17:26 | 50.35462 | 30.12110 | 22557 ft | 378 kts | 63° |
| 2026-04-21 17:26 | 50.36576 | 30.15811 | 21629 ft | 373 kts | 63° |
| 2026-04-21 17:26 | 50.37672 | 30.19458 | 20741 ft | 368 kts | 63° |
| 2026-04-21 17:27 | 50.38737 | 30.23102 | 20089 ft | 367 kts | 68° |
| 2026-04-21 17:27 | 50.39401 | 30.26936 | 19507 ft | 364 kts | 80° |
| 2026-04-21 17:27 | 50.39527 | 30.30883 | 18908 ft | 363 kts | 92° |
| 2026-04-21 17:27 | 50.39122 | 30.34767 | 18348 ft | 361 kts | 104° |
| 2026-04-21 17:28 | 50.38316 | 30.38481 | 17679 ft | 359 kts | 108° |
| 2026-04-21 17:28 | 50.37488 | 30.42151 | 17045 ft | 356 kts | 108° |
| 2026-04-21 17:28 | 50.36680 | 30.45744 | 16445 ft | 353 kts | 108° |
| 2026-04-21 17:28 | 50.35873 | 30.49357 | 15853 ft | 350 kts | 108° |
| 2026-04-21 17:29 | 50.35072 | 30.52945 | 15278 ft | 347 kts | 108° |
| 2026-04-21 17:29 | 50.34275 | 30.56491 | 14722 ft | 345 kts | 108° |
| 2026-04-21 17:29 | 50.33481 | 30.60015 | 14159 ft | 342 kts | 108° |
| 2026-04-21 17:29 | 50.32689 | 30.63521 | 13743 ft | 340 kts | 108° |
| 2026-04-21 17:30 | 50.31726 | 30.66891 | 13264 ft | 340 kts | 120° |
| 2026-04-21 17:30 | 50.30257 | 30.69772 | 12790 ft | 339 kts | 136° |
| 2026-04-21 17:30 | 50.28413 | 30.71901 | 12620 ft | 329 kts | 150° |
| 2026-04-21 17:30 | 50.26335 | 30.73247 | 12479 ft | 319 kts | 165° |
| 2026-04-21 17:31 | 50.24201 | 30.73944 | 12348 ft | 308 kts | 169° |
| 2026-04-21 17:31 | 50.22130 | 30.74581 | 12211 ft | 299 kts | 169° |
| 2026-04-21 17:31 | 50.20122 | 30.75146 | 12077 ft | 289 kts | 175° |
| 2026-04-21 17:31 | 50.18144 | 30.75135 | 11943 ft | 279 kts | 184° |
| 2026-04-21 17:32 | 50.16236 | 30.74997 | 11797 ft | 271 kts | 184° |
| 2026-04-21 17:32 | 50.14364 | 30.74863 | 11554 ft | 268 kts | 184° |
| 2026-04-21 17:32 | 50.12510 | 30.74730 | 11260 ft | 266 kts | 184° |
| 2026-04-21 17:32 | 50.10690 | 30.74600 | 10958 ft | 265 kts | 184° |
| 2026-04-21 17:33 | 50.08854 | 30.74465 | 10647 ft | 264 kts | 184° |
| 2026-04-21 17:33 | 50.07026 | 30.74333 | 10334 ft | 262 kts | 184° |
| 2026-04-21 17:33 | 50.05212 | 30.74203 | 9917 ft | 260 kts | 185° |
| 2026-04-21 17:33 | 50.03404 | 30.74085 | 9440 ft | 259 kts | 182° |
| 2026-04-21 17:34 | 50.01661 | 30.74678 | 8971 ft | 258 kts | 151° |
| 2026-04-21 17:34 | 50.00355 | 30.76513 | 8493 ft | 253 kts | 119° |
| 2026-04-21 17:34 | 49.99810 | 30.79047 | 8015 ft | 246 kts | 91° |
| 2026-04-21 17:34 | 49.99733 | 30.81663 | 7504 ft | 245 kts | 88° |
| 2026-04-21 17:35 | 50.00019 | 30.84208 | 6944 ft | 236 kts | 60° |
| 2026-04-21 17:35 | 50.01032 | 30.86122 | 6446 ft | 229 kts | 31° |
| 2026-04-21 17:35 | 50.02483 | 30.87003 | 6010 ft | 223 kts | 4° |
| 2026-04-21 17:35 | 50.04024 | 30.87133 | 5533 ft | 222 kts | 1° |
| 2026-04-21 17:36 | 50.05569 | 30.87237 | 5100 ft | 222 kts | 2° |
| 2026-04-21 17:36 | 50.07100 | 30.87486 | 4761 ft | 221 kts | 8° |
| 2026-04-21 17:36 | 50.08571 | 30.87851 | 4556 ft | 213 kts | 8° |
| 2026-04-21 17:36 | 50.10026 | 30.88208 | 4263 ft | 211 kts | 8° |
| 2026-04-21 17:37 | 50.11468 | 30.88560 | 3951 ft | 209 kts | 8° |
| 2026-04-21 17:37 | 50.12903 | 30.88910 | 3644 ft | 208 kts | 7° |
| 2026-04-21 17:37 | 50.14341 | 30.89077 | 3413 ft | 206 kts | 2° |
| 2026-04-21 17:37 | 50.15755 | 30.89168 | 3247 ft | 199 kts | 2° |
| 2026-04-21 17:38 | 50.17111 | 30.89263 | 3119 ft | 191 kts | 2° |
| 2026-04-21 17:38 | 50.18423 | 30.89357 | 3030 ft | 187 kts | 2° |
| 2026-04-21 17:38 | 50.19714 | 30.89451 | 2963 ft | 185 kts | 2° |
| 2026-04-21 17:38 | 50.20978 | 30.89543 | 2777 ft | 184 kts | 2° |
| 2026-04-21 17:39 | 50.22248 | 30.89636 | 2568 ft | 181 kts | 2° |
| 2026-04-21 17:39 | 50.23487 | 30.89726 | 2303 ft | 176 kts | 2° |
| 2026-04-21 17:39 | 50.24671 | 30.89813 | 2053 ft | 164 kts | 2° |
| 2026-04-21 17:39 | 50.25765 | 30.89893 | 1821 ft | 150 kts | 2° |
| 2026-04-21 17:40 | 50.26759 | 30.89966 | 1653 ft | 138 kts | 2° |
| 2026-04-21 17:40 | 50.27695 | 30.90034 | 1462 ft | 133 kts | 2° |
| 2026-04-21 17:40 | 50.28610 | 30.90101 | 1257 ft | 131 kts | 2° |
| 2026-04-21 17:40 | 50.29509 | 30.90166 | 1062 ft | 131 kts | 2° |
| 2026-04-21 17:41 | 50.30428 | 30.90238 | 867 ft | 134 kts | 2° |
| 2026-04-21 17:41 | 50.31358 | 30.90301 | 705 ft | 134 kts | 2° |
| 2026-04-21 17:41 | 50.32291 | 30.90368 | 507 ft | 134 kts | 2° |
| 2026-04-21 17:41 | 50.33183 | 30.90435 | 413 ft | 111 kts | 2° |
| 2026-04-21 17:42 | 50.33847 | 30.90485 | 420 ft | 103 kts | 3° |
| 2026-04-21 17:42 | 50.34815 | 30.90562 | 536 ft | 161 kts | 3° |
| 2026-04-21 17:42 | 50.35935 | 30.90625 | 1481 ft | 160 kts | 1° |
| 2026-04-21 17:42 | 50.37047 | 30.90674 | 2446 ft | 162 kts | 1° |
| 2026-04-21 17:43 | 50.38207 | 30.90905 | 2760 ft | 183 kts | 21° |
| 2026-04-21 17:43 | 50.39193 | 30.92258 | 2958 ft | 197 kts | 59° |
| 2026-04-21 17:43 | 50.39482 | 30.94447 | 3014 ft | 216 kts | 95° |
| 2026-04-21 17:43 | 50.38892 | 30.96617 | 3015 ft | 223 kts | 130° |
| 2026-04-21 17:44 | 50.37597 | 30.97931 | 3013 ft | 226 kts | 165° |
| 2026-04-21 17:44 | 50.36029 | 30.98173 | 3015 ft | 228 kts | 180° |
| 2026-04-21 17:44 | 50.34442 | 30.98123 | 3016 ft | 228 kts | 182° |
| 2026-04-21 17:44 | 50.32853 | 30.98018 | 3010 ft | 228 kts | 182° |
| 2026-04-21 17:45 | 50.31289 | 30.97905 | 3008 ft | 229 kts | 183° |
| 2026-04-21 17:45 | 50.29700 | 30.97788 | 3012 ft | 229 kts | 182° |
| 2026-04-21 17:45 | 50.28111 | 30.97670 | 3014 ft | 229 kts | 183° |
| 2026-04-21 17:45 | 50.26521 | 30.97551 | 3012 ft | 229 kts | 183° |
| 2026-04-21 17:46 | 50.24932 | 30.97432 | 3012 ft | 228 kts | 183° |
| 2026-04-21 17:46 | 50.23352 | 30.97314 | 3008 ft | 227 kts | 182° |
| 2026-04-21 17:46 | 50.21767 | 30.97200 | 3011 ft | 228 kts | 182° |
| 2026-04-21 17:46 | 50.20189 | 30.97092 | 3013 ft | 227 kts | 182° |
| 2026-04-21 17:47 | 50.18629 | 30.96982 | 3014 ft | 227 kts | 184° |
| 2026-04-21 17:47 | 50.17183 | 30.96304 | 3003 ft | 211 kts | 218° |
| 2026-04-21 17:47 | 50.16292 | 30.94601 | 3011 ft | 201 kts | 252° |
| 2026-04-21 17:47 | 50.16138 | 30.92515 | 3013 ft | 192 kts | 284° |
| 2026-04-21 17:48 | 50.16683 | 30.90678 | 3014 ft | 187 kts | 314° |
| 2026-04-21 17:48 | 50.17732 | 30.89559 | 3014 ft | 183 kts | 344° |
| 2026-04-21 17:48 | 50.18991 | 30.89390 | 3022 ft | 183 kts | 2° |
| 2026-04-21 17:48 | 50.20270 | 30.89488 | 2890 ft | 184 kts | 2° |
| 2026-04-21 17:49 | 50.21545 | 30.89584 | 2672 ft | 183 kts | 2° |
| 2026-04-21 17:49 | 50.22795 | 30.89676 | 2437 ft | 182 kts | 2° |
| 2026-04-21 17:49 | 50.24046 | 30.89767 | 2208 ft | 177 kts | 2° |
| 2026-04-21 17:49 | 50.25239 | 30.89855 | 1943 ft | 165 kts | 2° |
| 2026-04-21 17:50 | 50.26339 | 30.89935 | 1725 ft | 151 kts | 2° |
| 2026-04-21 17:50 | 50.27330 | 30.90007 | 1523 ft | 137 kts | 2° |
| 2026-04-21 17:50 | 50.28261 | 30.90076 | 1337 ft | 132 kts | 2° |
| 2026-04-21 17:50 | 50.29178 | 30.90144 | 1135 ft | 132 kts | 2° |
| 2026-04-21 17:51 | 50.30087 | 30.90215 | 957 ft | 133 kts | 2° |
| 2026-04-21 17:51 | 50.31018 | 30.90272 | 777 ft | 134 kts | 1° |
| 2026-04-21 17:51 | 50.31948 | 30.90337 | 575 ft | 134 kts | 3° |
| 2026-04-21 17:51 | 50.32874 | 30.90410 | 433 ft | 127 kts | 3° |
| 2026-04-21 17:52 | 50.33647 | 30.90470 | 417 ft | 90 kts | 2° |
| 2026-04-21 17:52 | 50.34087 | 30.90503 | 414 ft | 26 kts | 2° |
| 2026-04-21 17:52 | 50.34217 | 30.90497 | 413 ft | 19 kts | 352° |
| 2026-04-21 17:52 | 50.34354 | 30.90439 | 417 ft | 22 kts | 336° |
| 2026-04-21 17:53 | 50.34497 | 30.90322 | 413 ft | 25 kts | 332° |
| 2026-04-21 17:53 | 50.34635 | 30.90223 | 412 ft | 18 kts | 349° |
| 2026-04-21 17:53 | 50.34764 | 30.90228 | 413 ft | 20 kts | 2° |
| 2026-04-21 17:53 | 50.34908 | 30.90239 | 416 ft | 22 kts | 3° |
| 2026-04-21 17:54 | 50.35065 | 30.90250 | 415 ft | 24 kts | 2° |
| 2026-04-21 17:54 | 50.35175 | 30.90225 | 415 ft | 14 kts | 319° |
| 2026-04-21 17:54 | 50.35196 | 30.90086 | 411 ft | 12 kts | 284° |
| 2026-04-21 17:54 | 50.35255 | 30.90020 | 411 ft | 11 kts | 359° |
| 2026-04-21 17:55 | 50.35270 | 30.90097 | 415 ft | 7 kts | 94° |
| 2026-04-21 17:55 | 50.35268 | 30.90148 | 415 ft | 1 kts | 92° |
| 2026-04-21 17:55 | 50.35268 | 30.90152 | 415 ft | 0 kts | 92° |
| 2026-04-21 17:55 | 50.35268 | 30.90154 | 415 ft | 0 kts | 92° |